メインページ
METAR-TAF:

METAR-TAF

空港 :

ベイルート, レバノン

緯度: 33-49N, 経度: 035-29E, 海抜: 29m

現時点の気象観測

当レポートは17分前の09:00(UTC)に作成
西/南西の風 8kt
気温 28°C
湿度 55%
気圧 1015 hPa
視程10km以上
高度2700ftの雲はほとんどない

METAR: OLBA 200900Z 25008KT 9999 FEW027 28/18 Q1015 NOSIG

時間: 12:17 (09:17 UTC)

予報

当レポートは5時間17分前の04:00(UTC)に作成
予報は20日の 06時(UTC)から 21日の 12時(UTC)まで有効
南西の風 10kt
視程: 8000m
高度2600ftの千切れ雲あり
20日の 18時(UTC)から 20日の 21時(UTC)まで徐々に
の風 8kt
視程10km以上
高度2600ftの雲は散在している
21日の 00時(UTC)から 21日の 03時(UTC)まで徐々に
南西の風 8kt
21日の 06時(UTC)から 21日の 09時(UTC)まで徐々に
西/南西の風 10kt
視程: 8000m
高度2600ftの雲はほとんどない
高度7000ftの雲は散在している

TAF: OLBA 200400Z 2006/2112 22010KT 8000 BKN026 BECMG 2018/2021 18008KT 9999 SCT026 BECMG 2100/2103 22008KT BECMG 2106/2109 24010KT 8000 FEW026 SCT070

4,000以上の空港の気象観測と天気予報(METAR報とTAF報)

利用可能な観測所は地図上に黄色い丸と赤い丸で示す。

丸の上にカーソルを重ねると観測所名を参照できる。

次にクリックすると気象観測と天気予報を参照できる。

マップの切り替え:黒色「×」印の緑ボタンをクリックして拡大、「-」印の緑ボタンをクリックして縮小、緑色の三角印をクリックして隣りの地図に切り替え


METAR-TAF: